createdAt,value
2018-11-02T00:00:48.819Z,0
2018-11-02T00:01:51.225Z,0
2018-11-02T00:02:53.254Z,0
2018-11-02T00:03:55.268Z,0
2018-11-02T00:04:57.691Z,0
2018-11-02T00:06:00.034Z,0
2018-11-02T00:07:02.818Z,0
2018-11-02T00:08:04.851Z,0
2018-11-02T00:09:06.959Z,0
2018-11-02T00:10:08.990Z,0
2018-11-02T00:11:11.006Z,0
2018-11-02T00:12:13.062Z,0
2018-11-02T00:13:15.061Z,0
2018-11-02T00:14:17.463Z,0
2018-11-02T00:15:19.487Z,0
2018-11-02T00:16:21.811Z,0
2018-11-02T00:17:24.220Z,0
2018-11-02T00:18:26.243Z,0
2018-11-02T00:19:28.269Z,0
2018-11-02T00:20:30.967Z,0
2018-11-02T00:21:32.998Z,0
2018-11-02T00:22:35.016Z,0
2018-11-02T00:23:37.032Z,0
2018-11-02T00:24:39.062Z,0
2018-11-02T00:25:41.085Z,0
2018-11-02T00:26:43.113Z,0
2018-11-02T00:27:45.476Z,0
2018-11-02T00:28:47.503Z,0
2018-11-02T00:29:49.513Z,0
2018-11-02T00:30:51.539Z,0
2018-11-02T00:31:53.591Z,0
2018-11-02T00:32:56.151Z,0
2018-11-02T00:33:58.182Z,0
2018-11-02T00:35:00.194Z,0
2018-11-02T00:36:02.836Z,0
2018-11-02T00:37:04.847Z,0
2018-11-02T00:38:07.168Z,0
2018-11-02T00:39:09.183Z,0
2018-11-02T00:40:11.204Z,0
2018-11-02T00:41:13.231Z,0
2018-11-02T00:42:15.289Z,0
2018-11-02T00:43:17.275Z,0
2018-11-02T00:44:19.285Z,0
2018-11-02T00:45:21.692Z,0
2018-11-02T00:46:23.704Z,0
2018-11-02T00:47:25.728Z,0
2018-11-02T00:48:27.748Z,0
2018-11-02T00:49:30.149Z,0
2018-11-02T00:50:32.163Z,0
2018-11-02T00:51:34.586Z,0
2018-11-02T00:52:36.984Z,0
2018-11-02T00:53:39.393Z,0
2018-11-02T00:54:41.435Z,0
2018-11-02T00:55:43.448Z,0
2018-11-02T00:56:45.468Z,0
2018-11-02T00:57:47.497Z,0
2018-11-02T00:58:49.787Z,0
2018-11-02T00:59:52.260Z,0
2018-11-02T01:00:54.289Z,0
2018-11-02T01:01:56.313Z,0
2018-11-02T01:02:58.330Z,0
2018-11-02T01:04:00.639Z,0
2018-11-02T01:05:02.981Z,0
2018-11-02T01:06:04.967Z,0
2018-11-02T01:07:07.288Z,0
2018-11-02T01:08:09.301Z,0
2018-11-02T01:09:11.322Z,0
2018-11-02T01:10:13.336Z,0
2018-11-02T01:11:15.371Z,0
2018-11-02T01:12:17.385Z,0
2018-11-02T01:13:19.411Z,0
2018-11-02T01:14:21.434Z,0
2018-11-02T01:15:23.441Z,0
2018-11-02T01:16:25.500Z,0
2018-11-02T01:17:27.499Z,0
2018-11-02T01:18:29.507Z,0
2018-11-02T01:19:31.903Z,0
2018-11-02T01:20:33.929Z,0
2018-11-02T01:21:35.955Z,0
2018-11-02T01:22:37.981Z,0
2018-11-02T01:23:40.010Z,0
2018-11-02T01:24:42.023Z,0
2018-11-02T01:25:44.048Z,0
2018-11-02T01:26:46.062Z,0
2018-11-02T01:27:48.121Z,0
2018-11-02T01:28:50.791Z,0
2018-11-02T01:29:52.815Z,0
2018-11-02T01:30:54.844Z,0
2018-11-02T01:31:56.854Z,0
2018-11-02T01:32:59.785Z,0
2018-11-02T01:34:01.813Z,0
2018-11-02T01:35:04.129Z,0
2018-11-02T01:36:06.142Z,0
2018-11-02T01:37:08.462Z,0
2018-11-02T01:38:10.775Z,0
2018-11-02T01:39:13.214Z,0
2018-11-02T01:40:15.244Z,0
2018-11-02T01:41:17.644Z,0
2018-11-02T01:42:20.336Z,0
2018-11-02T01:43:22.350Z,0
2018-11-02T01:44:24.672Z,0
2018-11-02T01:45:27.012Z,0
2018-11-02T01:46:29.032Z,0
2018-11-02T01:47:31.380Z,0
2018-11-02T01:48:34.063Z,0
2018-11-02T01:49:36.481Z,0
2018-11-02T01:50:38.500Z,0
2018-11-02T01:51:40.518Z,0
2018-11-02T01:52:42.833Z,0
2018-11-02T01:53:44.859Z,0
2018-11-02T01:54:46.877Z,0
2018-11-02T01:55:48.904Z,0
2018-11-02T01:56:50.930Z,0
2018-11-02T01:57:52.937Z,0
2018-11-02T01:58:55.276Z,0
2018-11-02T01:59:57.591Z,0
2018-11-02T02:00:59.600Z,0
2018-11-02T02:02:01.626Z,0
2018-11-02T02:03:04.033Z,0
2018-11-02T02:04:06.054Z,0
2018-11-02T02:05:08.081Z,0
2018-11-02T02:06:10.094Z,0
2018-11-02T02:07:12.112Z,0
2018-11-02T02:08:14.422Z,0
2018-11-02T02:09:16.456Z,0
2018-11-02T02:10:18.470Z,0
2018-11-02T02:11:21.103Z,0
2018-11-02T02:12:23.127Z,0
2018-11-02T02:13:25.535Z,0
2018-11-02T02:14:27.968Z,0
2018-11-02T02:15:29.980Z,0
2018-11-02T02:16:32.010Z,0
2018-11-02T02:17:34.400Z,0
2018-11-02T02:18:36.427Z,0
2018-11-02T02:19:38.448Z,0
2018-11-02T02:20:40.780Z,0
2018-11-02T02:21:42.827Z,0
2018-11-02T02:22:44.823Z,0
2018-11-02T02:23:46.844Z,0
2018-11-02T02:24:48.869Z,0
2018-11-02T02:25:50.893Z,0
2018-11-02T02:26:52.910Z,0
2018-11-02T02:27:54.930Z,0
2018-11-02T02:28:56.970Z,0
2018-11-02T02:29:58.962Z,0
2018-11-02T02:31:00.991Z,0
2018-11-02T02:32:03.388Z,0
2018-11-02T02:33:05.404Z,0
2018-11-02T02:34:07.438Z,0
2018-11-02T02:35:09.456Z,0
2018-11-02T02:36:11.473Z,0
2018-11-02T02:37:13.497Z,0
2018-11-02T02:38:15.512Z,0
2018-11-02T02:39:17.535Z,0
2018-11-02T02:40:19.568Z,0
2018-11-02T02:41:21.585Z,0
2018-11-02T02:42:23.999Z,0
2018-11-02T02:43:26.015Z,0
2018-11-02T02:44:28.047Z,0
2018-11-02T02:45:30.071Z,0
2018-11-02T02:46:32.081Z,0
2018-11-02T02:47:34.110Z,0
2018-11-02T02:48:36.124Z,0
2018-11-02T02:49:38.148Z,0
2018-11-02T02:50:40.595Z,0
2018-11-02T02:51:43.215Z,0
2018-11-02T02:52:45.259Z,0
2018-11-02T02:53:47.250Z,0
2018-11-02T02:54:49.283Z,0
2018-11-02T02:55:51.290Z,0
2018-11-02T02:56:53.318Z,0
2018-11-02T02:57:55.376Z,0
2018-11-02T02:58:57.752Z,0
2018-11-02T03:00:00.439Z,0
2018-11-02T03:01:02.458Z,0
2018-11-02T03:02:05.146Z,0
2018-11-02T03:03:07.161Z,0
2018-11-02T03:04:09.194Z,0
2018-11-02T03:05:11.596Z,0
2018-11-02T03:06:13.911Z,0
2018-11-02T03:07:15.936Z,0
2018-11-02T03:08:17.958Z,0
2018-11-02T03:09:20.602Z,0
2018-11-02T03:10:22.729Z,0
2018-11-02T03:11:25.076Z,0
2018-11-02T03:12:27.486Z,0
2018-11-02T03:13:29.510Z,0
2018-11-02T03:14:31.544Z,0
2018-11-02T03:15:33.544Z,0
2018-11-02T03:16:35.571Z,0
2018-11-02T03:17:37.581Z,0
2018-11-02T03:18:39.651Z,0
2018-11-02T03:19:42.049Z,0
2018-11-02T03:20:44.059Z,0
2018-11-02T03:21:46.089Z,0
2018-11-02T03:22:48.104Z,0
2018-11-02T03:23:50.133Z,0
2018-11-02T03:24:52.147Z,0
2018-11-02T03:25:54.556Z,0
2018-11-02T03:26:56.960Z,0
2018-11-02T03:27:58.969Z,0
2018-11-02T03:29:01.004Z,0
2018-11-02T03:30:03.795Z,0
2018-11-02T03:31:06.194Z,0
2018-11-02T03:32:08.112Z,0
2018-11-02T03:33:10.831Z,0
2018-11-02T03:34:12.852Z,0
2018-11-02T03:35:14.878Z,0
2018-11-02T03:36:17.184Z,0
2018-11-02T03:37:19.190Z,0
2018-11-02T03:38:21.215Z,0
2018-11-02T03:39:23.241Z,0
2018-11-02T03:40:25.261Z,0
2018-11-02T03:41:27.275Z,0
2018-11-02T03:42:29.575Z,0
2018-11-02T03:43:31.595Z,0
2018-11-02T03:44:33.627Z,0
2018-11-02T03:45:35.643Z,0
2018-11-02T03:46:37.654Z,0
2018-11-02T03:47:39.679Z,0
2018-11-02T03:48:41.700Z,0
2018-11-02T03:49:43.716Z,0
2018-11-02T03:50:45.745Z,0
2018-11-02T03:51:48.062Z,0
2018-11-02T03:52:50.070Z,0
2018-11-02T03:53:52.099Z,0
2018-11-02T03:54:54.198Z,0
2018-11-02T03:55:56.514Z,0
2018-11-02T03:57:00.488Z,0
2018-11-02T03:58:02.441Z,0
2018-11-02T03:59:04.745Z,0
2018-11-02T04:00:06.772Z,0
2018-11-02T04:01:08.784Z,0
2018-11-02T04:02:10.813Z,0
2018-11-02T04:03:12.825Z,0
2018-11-02T04:04:15.452Z,0
2018-11-02T04:05:17.765Z,0
2018-11-02T04:06:19.786Z,0
2018-11-02T04:07:22.487Z,0
2018-11-02T04:08:25.185Z,0
2018-11-02T04:09:27.563Z,0
2018-11-02T04:10:29.508Z,0
2018-11-02T04:11:31.530Z,0
2018-11-02T04:12:33.562Z,0
2018-11-02T04:13:35.566Z,0
2018-11-02T04:14:37.885Z,0
2018-11-02T04:15:39.906Z,0
2018-11-02T04:16:42.217Z,0
2018-11-02T04:17:44.242Z,0
2018-11-02T04:18:46.256Z,0
2018-11-02T04:19:48.268Z,0
2018-11-02T04:20:50.284Z,0
2018-11-02T04:21:52.309Z,0
2018-11-02T04:22:54.357Z,0
2018-11-02T04:23:56.652Z,0
2018-11-02T04:24:59.457Z,0
2018-11-02T04:26:01.481Z,0
2018-11-02T04:27:03.513Z,0
2018-11-02T04:28:05.522Z,0
2018-11-02T04:29:07.547Z,0
2018-11-02T04:30:10.166Z,0
2018-11-02T04:31:12.190Z,0
2018-11-02T04:32:14.226Z,0
2018-11-02T04:33:16.226Z,0
2018-11-02T04:34:18.261Z,0
2018-11-02T04:35:20.266Z,0
2018-11-02T04:36:22.287Z,0
2018-11-02T04:37:24.735Z,0
2018-11-02T04:38:26.755Z,0
2018-11-02T04:39:28.787Z,0
2018-11-02T04:40:31.805Z,0
2018-11-02T04:41:34.126Z,0
2018-11-02T04:42:36.431Z,0
2018-11-02T04:43:38.516Z,0
2018-11-02T04:44:40.526Z,0
2018-11-02T04:45:42.537Z,0
2018-11-02T04:46:44.574Z,0
2018-11-02T04:47:47.008Z,0
2018-11-02T04:48:49.025Z,0
2018-11-02T04:49:51.056Z,0
2018-11-02T04:50:53.416Z,0
2018-11-02T04:51:56.416Z,0
2018-11-02T04:52:58.732Z,0
2018-11-02T04:54:00.759Z,0
2018-11-02T04:55:03.073Z,0
2018-11-02T04:56:05.093Z,0
2018-11-02T04:57:07.111Z,0
2018-11-02T04:58:09.123Z,0
2018-11-02T04:59:11.149Z,0
2018-11-02T05:00:13.853Z,0
2018-11-02T05:01:15.884Z,0
2018-11-02T05:02:17.887Z,0
2018-11-02T05:03:19.916Z,0
2018-11-02T05:04:21.942Z,0
2018-11-02T05:05:23.960Z,0
2018-11-02T05:06:25.990Z,0
2018-11-02T05:07:27.999Z,0
2018-11-02T05:08:30.037Z,0
2018-11-02T05:09:32.433Z,0
2018-11-02T05:10:35.073Z,0
2018-11-02T05:11:37.379Z,0
2018-11-02T05:12:40.043Z,0
2018-11-02T05:13:42.053Z,0
2018-11-02T05:14:44.066Z,0
2018-11-02T05:15:46.081Z,0
2018-11-02T05:16:48.108Z,0
2018-11-02T05:17:50.123Z,0
2018-11-02T05:18:52.135Z,0
2018-11-02T05:19:54.764Z,0
2018-11-02T05:20:56.790Z,0
2018-11-02T05:21:59.179Z,0
2018-11-02T05:23:01.202Z,0
2018-11-02T05:24:03.501Z,0
2018-11-02T05:25:05.524Z,0
2018-11-02T05:26:07.840Z,0
2018-11-02T05:27:10.157Z,0
2018-11-02T05:28:12.459Z,0
2018-11-02T05:29:14.776Z,0
2018-11-02T05:30:17.389Z,0
2018-11-02T05:31:19.788Z,0
2018-11-02T05:32:21.821Z,0
2018-11-02T05:33:24.119Z,0
2018-11-02T05:34:26.525Z,0
2018-11-02T05:35:28.539Z,0
2018-11-02T05:36:30.567Z,0
2018-11-02T05:37:32.866Z,0
2018-11-02T05:38:34.882Z,0
2018-11-02T05:39:37.293Z,4
2018-11-02T05:40:39.213Z,4
2018-11-02T05:41:41.235Z,4
2018-11-02T05:42:43.246Z,0
2018-11-02T05:43:45.267Z,4
2018-11-02T05:44:47.662Z,8
2018-11-02T05:45:49.688Z,4
2018-11-02T05:46:52.091Z,8
2018-11-02T05:47:54.500Z,8
2018-11-02T05:48:56.524Z,8
2018-11-02T05:49:58.530Z,12
2018-11-02T05:51:00.555Z,16
2018-11-02T05:52:02.868Z,16
2018-11-02T05:53:04.898Z,20
2018-11-02T05:54:06.987Z,28
2018-11-02T05:55:09.367Z,32
2018-11-02T05:56:11.393Z,36
2018-11-02T05:57:13.400Z,44
2018-11-02T05:58:15.424Z,52
2018-11-02T05:59:17.452Z,60
2018-11-02T06:00:19.476Z,68
2018-11-02T06:01:21.510Z,80
2018-11-02T06:02:23.510Z,88
2018-11-02T06:03:25.824Z,104
2018-11-02T06:04:27.836Z,112
2018-11-02T06:05:30.213Z,124
2018-11-02T06:06:32.220Z,148
2018-11-02T06:07:34.291Z,164
2018-11-02T06:08:36.883Z,184
2018-11-02T06:09:38.911Z,208
2018-11-02T06:10:40.923Z,224
2018-11-02T06:11:42.949Z,244
2018-11-02T06:12:45.263Z,268
2018-11-02T06:13:47.277Z,296
2018-11-02T06:14:49.307Z,320
2018-11-02T06:15:52.025Z,340
2018-11-02T06:16:54.417Z,368
2018-11-02T06:17:57.224Z,400
2018-11-02T06:18:59.248Z,448
2018-11-02T06:20:01.563Z,488
2018-11-02T06:21:03.587Z,540
2018-11-02T06:22:05.608Z,568
2018-11-02T06:23:07.619Z,616
2018-11-02T06:24:09.704Z,660
2018-11-02T06:25:12.987Z,708
2018-11-02T06:26:15.288Z,796
2018-11-02T06:27:17.702Z,876
2018-11-02T06:28:20.010Z,928
2018-11-02T06:29:22.036Z,960
2018-11-02T06:30:24.078Z,1000
2018-11-02T06:31:27.238Z,1036
2018-11-02T06:32:29.269Z,1080
2018-11-02T06:33:31.281Z,1104
2018-11-02T06:34:33.621Z,1164
2018-11-02T06:35:35.655Z,1176
2018-11-02T06:36:38.052Z,1216
2018-11-02T06:37:40.102Z,1292
2018-11-02T06:38:42.226Z,1376
2018-11-02T06:39:44.115Z,1528
2018-11-02T06:40:46.141Z,1672
2018-11-02T06:41:48.163Z,1768
2018-11-02T06:42:50.191Z,1848
2018-11-02T06:43:52.218Z,1936
2018-11-02T06:44:54.334Z,2024
2018-11-02T06:45:56.254Z,2104
2018-11-02T06:46:58.571Z,2176
2018-11-02T06:48:00.600Z,2260
2018-11-02T06:49:02.613Z,2296
2018-11-02T06:50:04.628Z,2384
2018-11-02T06:51:07.202Z,2616
2018-11-02T06:52:09.893Z,2680
2018-11-02T06:53:11.928Z,2672
2018-11-02T06:54:13.935Z,2884
2018-11-02T06:55:15.960Z,2804
2018-11-02T06:56:17.973Z,2864
2018-11-02T06:57:20.000Z,2900
2018-11-02T06:58:22.322Z,3188
2018-11-02T06:59:24.443Z,3928
2018-11-02T07:00:27.052Z,4072
2018-11-02T07:01:28.917Z,5580
2018-11-02T07:02:30.940Z,6668
2018-11-02T07:03:32.969Z,6516
2018-11-02T07:04:34.988Z,6324
2018-11-02T07:05:37.292Z,6756
2018-11-02T07:06:39.691Z,6996
2018-11-02T07:07:41.974Z,7456
2018-11-02T07:08:44.469Z,7964
2018-11-02T07:09:46.495Z,7744
2018-11-02T07:10:48.524Z,7684
2018-11-02T07:11:50.531Z,8360
2018-11-02T07:12:52.563Z,8940
2018-11-02T07:13:54.582Z,9196
2018-11-02T07:14:56.627Z,9316
2018-11-02T07:15:58.620Z,9300
2018-11-02T07:17:00.648Z,9620
2018-11-02T07:18:02.669Z,10316
2018-11-02T07:19:04.684Z,10812
2018-11-02T07:20:06.718Z,9944
2018-11-02T07:21:08.730Z,8812
2018-11-02T07:22:11.038Z,10376
2018-11-02T07:23:13.064Z,12388
2018-11-02T07:24:15.091Z,13016
2018-11-02T07:25:17.243Z,12692
2018-11-02T07:26:19.713Z,12652
2018-11-02T07:27:22.030Z,13244
2018-11-02T07:28:24.049Z,13364
2018-11-02T07:29:26.110Z,13932
2018-11-02T07:30:28.100Z,14976
2018-11-02T07:31:30.118Z,15328
2018-11-02T07:32:32.154Z,15712
2018-11-02T07:33:34.172Z,15040
2018-11-02T07:34:36.320Z,15456
2018-11-02T07:35:39.026Z,16736
2018-11-02T07:36:41.443Z,17920
2018-11-02T07:37:43.809Z,17984
2018-11-02T07:38:45.837Z,18784
2018-11-02T07:39:47.866Z,19200
2018-11-02T07:40:49.880Z,20224
2018-11-02T07:41:51.908Z,21184
2018-11-02T07:42:53.926Z,21376
2018-11-02T07:43:56.336Z,21568
2018-11-02T07:44:58.966Z,23136
2018-11-02T07:46:01.002Z,22336
2018-11-02T07:47:03.309Z,21600
2018-11-02T07:48:05.336Z,21280
2018-11-02T07:49:07.347Z,20512
2018-11-02T07:50:09.379Z,21856
2018-11-02T07:51:11.403Z,21856
2018-11-02T07:52:13.422Z,21664
2018-11-02T07:53:15.454Z,21920
2018-11-02T07:54:17.762Z,23360
2018-11-02T07:55:19.813Z,25472
2018-11-02T07:56:22.354Z,25568
2018-11-02T07:57:24.381Z,26016
2018-11-02T07:58:26.401Z,25344
2018-11-02T07:59:28.430Z,25088
2018-11-02T08:00:30.759Z,27456
2018-11-02T08:01:33.501Z,29088
2018-11-02T08:02:35.544Z,29088
2018-11-02T08:03:37.513Z,28416
2018-11-02T08:04:39.531Z,26624
2018-11-02T08:05:41.876Z,26112
2018-11-02T08:06:44.194Z,27520
2018-11-02T08:07:46.224Z,28448
2018-11-02T08:08:48.641Z,29600
2018-11-02T08:09:50.664Z,30272
2018-11-02T08:10:52.698Z,29664
2018-11-02T08:11:54.731Z,28960
2018-11-02T08:12:56.768Z,28288
2018-11-02T08:13:59.455Z,29856
2018-11-02T08:15:01.486Z,31200
2018-11-02T08:16:03.510Z,32576
2018-11-02T08:17:05.535Z,31488
2018-11-02T08:18:07.571Z,32800
2018-11-02T08:19:09.952Z,34016
2018-11-02T08:20:12.362Z,32800
2018-11-02T08:21:14.388Z,33216
2018-11-02T08:22:16.433Z,34752
2018-11-02T08:23:18.451Z,37216
2018-11-02T08:24:20.792Z,36288
2018-11-02T08:25:22.812Z,35936
2018-11-02T08:26:24.853Z,36576
2018-11-02T08:27:27.261Z,37376
2018-11-02T08:28:29.288Z,39488
2018-11-02T08:29:31.326Z,37856
2018-11-02T08:30:33.752Z,37376
2018-11-02T08:31:36.161Z,38144
2018-11-02T08:32:38.194Z,38080
2018-11-02T08:33:40.216Z,39392
2018-11-02T08:34:42.237Z,43040
2018-11-02T08:35:44.659Z,41440
2018-11-02T08:36:46.682Z,39840
2018-11-02T08:37:48.705Z,43360
2018-11-02T08:38:51.030Z,43360
2018-11-02T08:39:53.055Z,42048
2018-11-02T08:40:55.671Z,27776
2018-11-02T08:41:57.989Z,45344
2018-11-02T08:43:00.007Z,47968
2018-11-02T08:44:02.047Z,48320
2018-11-02T08:45:04.365Z,37056
2018-11-02T08:46:06.399Z,38848
2018-11-02T08:47:08.419Z,9796
2018-11-02T08:48:10.466Z,7312
2018-11-02T08:49:12.493Z,24192
2018-11-02T08:50:14.520Z,42432
2018-11-02T08:51:16.557Z,42048
2018-11-02T08:52:18.615Z,41792
2018-11-02T08:53:21.525Z,40960
2018-11-02T08:54:23.553Z,40736
2018-11-02T08:55:25.597Z,41856
2018-11-02T08:56:27.620Z,44352
2018-11-02T08:57:29.650Z,44256
2018-11-02T08:58:32.306Z,43200
2018-11-02T08:59:35.706Z,42464
2018-11-02T09:00:38.786Z,42400
2018-11-02T09:01:41.128Z,43232
2018-11-02T09:02:43.430Z,42432
2018-11-02T09:03:45.466Z,42592
2018-11-02T09:04:47.826Z,40384
2018-11-02T09:05:49.837Z,40384
2018-11-02T09:06:51.862Z,44768
2018-11-02T09:07:53.887Z,47584
2018-11-02T09:08:56.213Z,47552
2018-11-02T09:09:58.240Z,44608
2018-11-02T09:11:00.268Z,42720
2018-11-02T09:12:02.316Z,42080
2018-11-02T09:13:04.343Z,45120
2018-11-02T09:14:06.661Z,45952
2018-11-02T09:15:08.982Z,42976
2018-11-02T09:16:11.391Z,45632
2018-11-02T09:17:13.994Z,43776
2018-11-02T09:18:16.042Z,49600
2018-11-02T09:19:18.687Z,21888
2018-11-02T09:20:21.163Z,22848
2018-11-02T09:21:23.482Z,33024
2018-11-02T09:22:25.510Z,19200
2018-11-02T09:23:27.539Z,14400
2018-11-02T09:24:29.580Z,10764
2018-11-02T09:25:31.601Z,9456
2018-11-02T09:26:33.636Z,10504
2018-11-02T09:27:36.228Z,11384
2018-11-02T09:28:38.054Z,9744
2018-11-02T09:29:40.080Z,8272
2018-11-02T09:30:42.114Z,6040
2018-11-02T09:31:44.153Z,5568
2018-11-02T09:32:46.177Z,6512
2018-11-02T09:33:48.607Z,5820
2018-11-02T09:34:50.632Z,5808
2018-11-02T09:35:52.661Z,5576
2018-11-02T09:36:54.687Z,6448
2018-11-02T09:37:56.726Z,5916
2018-11-02T09:38:59.148Z,6716
2018-11-02T09:40:01.187Z,8432
2018-11-02T09:41:03.514Z,9796
2018-11-02T09:42:05.529Z,9712
2018-11-02T09:43:07.568Z,10952
2018-11-02T09:44:09.602Z,13088
2018-11-02T09:45:11.627Z,12744
2018-11-02T09:46:13.953Z,11856
2018-11-02T09:47:16.308Z,9192
2018-11-02T09:48:18.373Z,8076
2018-11-02T09:49:20.371Z,7356
2018-11-02T09:50:22.397Z,7360
2018-11-02T09:51:24.822Z,7076
2018-11-02T09:52:27.613Z,6396
2018-11-02T09:53:29.647Z,6004
2018-11-02T09:54:31.671Z,5452
2018-11-02T09:55:33.705Z,4460
2018-11-02T09:56:36.123Z,4828
2018-11-02T09:57:38.193Z,5036
2018-11-02T09:58:40.181Z,4136
2018-11-02T09:59:42.504Z,4468
2018-11-02T10:00:44.538Z,3820
2018-11-02T10:01:46.558Z,4232
2018-11-02T10:02:48.676Z,3424
2018-11-02T10:03:51.005Z,4072
2018-11-02T10:04:53.038Z,4028
2018-11-02T10:05:55.073Z,4176
2018-11-02T10:06:57.090Z,3896
2018-11-02T10:07:59.423Z,4192
2018-11-02T10:09:01.788Z,4280
2018-11-02T10:10:03.803Z,4356
2018-11-02T10:11:05.825Z,4572
2018-11-02T10:12:08.164Z,4024
2018-11-02T10:13:10.525Z,3944
2018-11-02T10:14:13.169Z,4608
2018-11-02T10:15:15.205Z,4412
2018-11-02T10:16:17.229Z,3880
2018-11-02T10:17:19.262Z,4032
2018-11-02T10:18:21.280Z,3336
2018-11-02T10:19:23.890Z,3380
2018-11-02T10:20:25.919Z,3452
2018-11-02T10:21:27.942Z,3860
2018-11-02T10:22:29.981Z,3480
2018-11-02T10:23:32.001Z,3408
2018-11-02T10:24:34.019Z,3216
2018-11-02T10:25:36.042Z,3596
2018-11-02T10:26:38.079Z,3444
2018-11-02T10:27:40.456Z,3200
2018-11-02T10:28:43.501Z,3356
2018-11-02T10:29:45.570Z,3624
2018-11-02T10:30:47.555Z,3448
2018-11-02T10:31:49.880Z,4100
2018-11-02T10:32:52.294Z,4152
2018-11-02T10:33:54.728Z,3576
2018-11-02T10:34:56.746Z,3808
2018-11-02T10:35:58.923Z,4312
2018-11-02T10:37:00.813Z,5044
2018-11-02T10:38:02.836Z,4760
2018-11-02T10:39:04.868Z,4936
2018-11-02T10:40:06.898Z,4932
2018-11-02T10:41:09.218Z,5256
2018-11-02T10:42:11.252Z,5476
2018-11-02T10:43:13.578Z,6792
2018-11-02T10:44:15.640Z,6844
2018-11-02T10:45:17.673Z,7124
2018-11-02T10:46:19.662Z,6764
2018-11-02T10:47:21.683Z,8568
2018-11-02T10:48:23.719Z,10364
2018-11-02T10:49:25.820Z,12768
2018-11-02T10:50:27.766Z,23840
2018-11-02T10:51:29.812Z,35136
2018-11-02T10:52:31.832Z,32352
2018-11-02T10:53:34.243Z,43072
2018-11-02T10:54:36.375Z,25952
2018-11-02T10:55:38.306Z,66528
2018-11-02T10:56:40.465Z,50496
2018-11-02T10:57:43.193Z,28608
2018-11-02T10:58:45.504Z,27360
2018-11-02T10:59:47.938Z,30880
2018-11-02T11:00:50.107Z,41344
2018-11-02T11:01:52.506Z,32032
2018-11-02T11:02:54.539Z,40256
2018-11-02T11:03:56.552Z,18976
2018-11-02T11:04:58.591Z,19840
2018-11-02T11:06:00.615Z,14436
2018-11-02T11:07:02.657Z,11968
2018-11-02T11:08:04.679Z,12536
2018-11-02T11:09:07.002Z,11844
2018-11-02T11:10:09.412Z,11912
2018-11-02T11:11:11.435Z,13908
2018-11-02T11:12:13.937Z,13768
2018-11-02T11:13:16.761Z,10620
2018-11-02T11:14:20.340Z,11400
2018-11-02T11:15:22.372Z,9952
2018-11-02T11:16:24.415Z,7268
2018-11-02T11:17:26.439Z,6028
2018-11-02T11:18:28.765Z,6364
2018-11-02T11:19:31.174Z,6160
2018-11-02T11:20:33.197Z,6448
2018-11-02T11:21:35.278Z,4544
2018-11-02T11:22:37.680Z,3840
2018-11-02T11:23:39.702Z,3936
2018-11-02T11:24:41.742Z,5224
2018-11-02T11:25:43.770Z,8228
2018-11-02T11:26:46.177Z,14164
2018-11-02T11:27:48.212Z,15524
2018-11-02T11:28:50.528Z,20192
2018-11-02T11:29:52.855Z,43200
2018-11-02T11:30:54.889Z,21824
2018-11-02T11:31:56.931Z,24000
2018-11-02T11:32:58.962Z,20896
2018-11-02T11:34:00.988Z,14272
2018-11-02T11:35:03.429Z,11928
2018-11-02T11:36:05.444Z,12304
2018-11-02T11:37:07.777Z,11480
2018-11-02T11:38:09.818Z,10756
2018-11-02T11:39:12.228Z,12516
2018-11-02T11:40:14.551Z,12564
2018-11-02T11:41:16.604Z,12844
2018-11-02T11:42:18.609Z,10452
2018-11-02T11:43:20.637Z,10076
2018-11-02T11:44:22.664Z,12964
2018-11-02T11:45:24.705Z,17140
2018-11-02T11:46:26.723Z,22976
2018-11-02T11:47:28.757Z,24320
2018-11-02T11:48:31.164Z,34432
2018-11-02T11:49:33.130Z,27328
2018-11-02T11:50:35.539Z,21664
2018-11-02T11:51:37.563Z,16668
2018-11-02T11:52:39.587Z,32192
2018-11-02T11:53:41.610Z,13464
2018-11-02T11:54:43.741Z,15956
2018-11-02T11:55:46.076Z,53280
2018-11-02T11:56:48.093Z,62272
2018-11-02T11:57:50.139Z,72128
2018-11-02T11:58:52.169Z,22432
2018-11-02T11:59:54.587Z,14468
2018-11-02T12:00:56.622Z,6820
2018-11-02T12:01:59.026Z,5956
2018-11-02T12:03:01.445Z,7360
2018-11-02T12:04:03.872Z,42176
2018-11-02T12:05:06.022Z,23072
2018-11-02T12:06:07.925Z,63744
2018-11-02T12:07:09.963Z,65824
2018-11-02T12:08:12.412Z,64352
2018-11-02T12:09:14.470Z,65248
2018-11-02T12:10:16.522Z,68576
2018-11-02T12:11:20.252Z,67136
2018-11-02T12:12:22.294Z,6672
2018-11-02T12:13:24.321Z,64320
2018-11-02T12:14:27.051Z,8536
2018-11-02T12:15:29.076Z,7064
2018-11-02T12:16:31.731Z,8688
2018-11-02T12:17:33.767Z,7184
2018-11-02T12:18:35.792Z,6476
2018-11-02T12:19:38.158Z,5896
2018-11-02T12:20:40.189Z,5692
2018-11-02T12:21:42.281Z,5972
2018-11-02T12:22:44.244Z,6164
2018-11-02T12:23:46.284Z,6792
2018-11-02T12:24:48.311Z,54080
2018-11-02T12:25:50.344Z,9984
2018-11-02T12:26:52.394Z,7648
2018-11-02T12:27:54.421Z,7696
2018-11-02T12:28:56.832Z,69952
2018-11-02T12:29:58.787Z,8676
2018-11-02T12:31:01.497Z,62624
2018-11-02T12:32:03.922Z,9184
2018-11-02T12:33:06.258Z,70912
2018-11-02T12:34:08.611Z,70624
2018-11-02T12:35:10.636Z,11828
2018-11-02T12:36:12.661Z,74144
2018-11-02T12:37:15.100Z,70400
2018-11-02T12:38:17.011Z,60032
2018-11-02T12:39:19.726Z,26624
2018-11-02T12:40:21.756Z,46656
2018-11-02T12:41:24.196Z,12812
2018-11-02T12:42:26.233Z,60192
2018-11-02T12:43:28.647Z,39776
2018-11-02T12:44:30.587Z,22656
2018-11-02T12:45:32.659Z,20768
2018-11-02T12:46:34.696Z,42592
2018-11-02T12:47:36.715Z,57888
2018-11-02T12:48:38.865Z,55104
2018-11-02T12:49:41.251Z,45312
2018-11-02T12:50:42.834Z,57984
2018-11-02T12:51:44.854Z,20032
2018-11-02T12:52:47.281Z,8152
2018-11-02T12:53:49.612Z,8816
2018-11-02T12:54:51.643Z,8468
2018-11-02T12:55:53.668Z,8920
2018-11-02T12:56:55.704Z,7640
2018-11-02T12:57:57.743Z,7520
2018-11-02T12:59:00.133Z,8724
2018-11-02T13:00:02.174Z,8424
2018-11-02T13:01:04.195Z,7836
2018-11-02T13:02:06.232Z,8688
2018-11-02T13:03:08.273Z,10372
2018-11-02T13:04:10.296Z,21504
2018-11-02T13:05:12.644Z,12728
2018-11-02T13:06:15.413Z,10328
2018-11-02T13:07:17.481Z,13944
2018-11-02T13:08:19.489Z,14796
2018-11-02T13:09:21.574Z,12596
2018-11-02T13:10:23.549Z,13048
2018-11-02T13:11:25.572Z,7408
2018-11-02T13:12:27.620Z,9016
2018-11-02T13:13:30.024Z,7532
2018-11-02T13:14:32.065Z,4656
2018-11-02T13:15:34.103Z,17008
2018-11-02T13:16:36.508Z,9660
2018-11-02T13:17:38.625Z,10492
2018-11-02T13:18:40.592Z,15496
2018-11-02T13:19:43.195Z,16288
2018-11-02T13:20:45.214Z,20000
2018-11-02T13:21:47.378Z,24960
2018-11-02T13:22:49.937Z,26592
2018-11-02T13:23:52.555Z,36672
2018-11-02T13:24:54.598Z,8156
2018-11-02T13:25:56.750Z,6400
2018-11-02T13:26:58.654Z,8884
2018-11-02T13:28:00.972Z,7892
2018-11-02T13:29:03.003Z,11808
2018-11-02T13:30:05.197Z,9708
2018-11-02T13:31:08.685Z,5192
2018-11-02T13:32:10.684Z,5524
2018-11-02T13:33:12.717Z,5620
2018-11-02T13:34:14.739Z,5436
2018-11-02T13:35:16.779Z,5624
2018-11-02T13:36:19.485Z,5252
2018-11-02T13:37:21.402Z,5088
2018-11-02T13:38:23.838Z,4956
2018-11-02T13:39:25.866Z,4876
2018-11-02T13:40:28.281Z,4732
2018-11-02T13:41:30.733Z,4796
2018-11-02T13:42:32.757Z,4700
2018-11-02T13:43:34.864Z,4636
2018-11-02T13:44:37.217Z,4596
2018-11-02T13:45:39.260Z,4556
2018-11-02T13:46:41.602Z,4552
2018-11-02T13:47:44.018Z,4528
2018-11-02T13:48:46.054Z,4520
2018-11-02T13:49:48.076Z,4524
2018-11-02T13:50:50.119Z,4524
2018-11-02T13:51:52.145Z,4528
2018-11-02T13:52:54.743Z,4492
2018-11-02T13:53:56.763Z,4436
2018-11-02T13:54:58.803Z,4380
2018-11-02T13:56:00.834Z,4380
2018-11-02T13:57:02.860Z,4356
2018-11-02T13:58:04.901Z,4528
2018-11-02T13:59:06.921Z,4436
2018-11-02T14:00:09.330Z,4424
2018-11-02T14:01:11.769Z,4440
2018-11-02T14:02:14.216Z,4432
2018-11-02T14:03:16.240Z,4588
2018-11-02T14:04:18.287Z,4672
2018-11-02T14:05:20.315Z,4684
2018-11-02T14:06:22.356Z,4684
2018-11-02T14:07:24.375Z,4448
2018-11-02T14:08:26.413Z,4676
2018-11-02T14:09:28.836Z,4932
2018-11-02T14:10:30.857Z,5000
2018-11-02T14:11:32.932Z,5172
2018-11-02T14:12:35.388Z,5588
2018-11-02T14:13:37.412Z,4828
2018-11-02T14:14:39.451Z,4164
2018-11-02T14:15:41.785Z,4056
2018-11-02T14:16:43.808Z,3988